Time;durP1;ratioP1;P1;durP2;ratioP2;P2;SDS_P1;SDS_P2;PMS_P1;PMS_P2;Temp;Humidity;BMP_temperature;BMP_pressure;BME280_temperature;BME280_humidity;BME280_pressure;Samples;Min_cycle;Max_cycle;Signal;HPM_P1;HPM_P2
2022/06/28 00:00:32;;;;;;;2.78;1.52;;;19.60;99.90;;;;;;10137644;28;20119;-60
2022/06/28 00:05:22;;;;;;;1.70;0.55;;;19.70;99.90;;;;;;10137409;28;20032;-61
2022/06/28 00:10:14;;;;;;;1.63;0.70;;;19.80;99.90;;;;;;10136295;28;20071;-59
2022/06/28 00:20:17;;;;;;;0.90;0.68;;;19.60;99.90;;;;;;10120761;28;20106;-59
2022/06/28 00:25:08;;;;;;;4.68;1.55;;;19.50;99.90;;;;;;10135468;28;20548;-59
2022/06/28 00:29:59;;;;;;;1.15;0.95;;;19.50;99.90;;;;;;10126563;28;20195;-61
2022/06/28 00:34:50;;;;;;;2.85;1.00;;;19.40;99.90;;;;;;10135741;28;20229;-59
2022/06/28 00:39:40;;;;;;;2.08;0.88;;;19.30;99.90;;;;;;10118947;28;20246;-60
2022/06/28 00:44:31;;;;;;;1.02;0.70;;;19.30;99.90;;;;;;10136771;28;20115;-60
2022/06/28 00:49:23;;;;;;;2.45;0.70;;;19.30;99.90;;;;;;10135862;28;20487;-60
2022/06/28 00:54:14;;;;;;;2.17;0.95;;;19.10;99.90;;;;;;10134814;28;20016;-59
2022/06/28 00:59:04;;;;;;;1.10;0.60;;;19.20;99.90;;;;;;10134626;28;20482;-59
2022/06/28 01:03:55;;;;;;;1.42;0.70;;;19.20;99.90;;;;;;10134064;28;20116;-59
2022/06/28 01:08:46;;;;;;;1.70;0.90;;;19.20;99.90;;;;;;10134058;28;20526;-59
2022/06/28 01:13:37;;;;;;;1.17;0.90;;;19.10;99.90;;;;;;10116051;28;20032;-59
2022/06/28 01:18:28;;;;;;;0.77;0.77;;;19.10;99.90;;;;;;10133553;28;20103;-60
2022/06/28 01:23:20;;;;;;;1.73;0.65;;;19.10;99.90;;;;;;10130342;28;20056;-59
2022/06/28 01:28:11;;;;;;;0.63;0.57;;;19.10;99.90;;;;;;10130641;28;20097;-60
2022/06/28 01:33:03;;;;;;;1.40;1.30;;;19.00;99.90;;;;;;10132310;28;20418;-60
2022/06/28 01:37:54;;;;;;;1.00;0.75;;;19.00;99.90;;;;;;10132389;28;20040;-60
2022/06/28 01:42:45;;;;;;;0.90;0.70;;;18.90;99.90;;;;;;10134401;28;20029;-60
2022/06/28 01:47:37;;;;;;;1.60;1.33;;;18.90;99.90;;;;;;10114705;28;20051;-60
2022/06/28 01:52:28;;;;;;;1.30;0.90;;;18.80;99.90;;;;;;10132681;28;20020;-60
2022/06/28 01:57:19;;;;;;;0.98;0.88;;;18.80;99.90;;;;;;10132439;28;20017;-59
2022/06/28 02:02:09;;;;;;;1.77;0.70;;;18.90;99.90;;;;;;10103855;28;20587;-59
2022/06/28 02:07:00;;;;;;;3.33;1.23;;;18.80;99.90;;;;;;10129863;28;20505;-60
2022/06/28 02:11:52;;;;;;;1.15;0.82;;;18.80;99.90;;;;;;10131328;28;20140;-60
2022/06/28 02:16:44;;;;;;;1.48;1.38;;;18.90;99.90;;;;;;10131358;28;20040;-60
2022/06/28 02:21:40;;;;;;;1.90;1.05;;;18.90;99.90;;;;;;10131330;28;20115;-60
2022/06/28 02:26:33;;;;;;;2.92;0.90;;;18.90;99.90;;;;;;10131385;28;20523;-59
2022/06/28 02:31:24;;;;;;;2.25;1.45;;;18.90;99.90;;;;;;10121891;28;20098;-59
2022/06/28 02:41:24;;;;;;;1.52;1.10;;;18.80;99.90;;;;;;10131813;28;20043;-60
2022/06/28 02:46:15;;;;;;;0.95;0.80;;;18.80;99.90;;;;;;10131889;28;20102;-60
2022/06/28 02:51:06;;;;;;;1.48;0.95;;;18.90;99.90;;;;;;10114431;28;20452;-60
2022/06/28 02:55:56;;;;;;;0.93;0.70;;;18.90;99.90;;;;;;10131452;28;20028;-62
2022/06/28 03:00:47;;;;;;;1.67;0.90;;;18.70;99.90;;;;;;10131379;28;20179;-60
2022/06/28 03:05:38;;;;;;;2.63;1.10;;;18.60;99.90;;;;;;10130203;28;20279;-59
2022/06/28 03:10:28;;;;;;;1.25;0.90;;;18.60;99.90;;;;;;10132124;28;20051;-59
2022/06/28 03:15:20;;;;;;;1.23;0.80;;;18.50;99.90;;;;;;10130840;28;20049;-59
2022/06/28 03:20:11;;;;;;;2.67;1.45;;;18.50;99.90;;;;;;10130713;28;20039;-60
2022/06/28 03:25:01;;;;;;;1.88;1.15;;;18.30;99.90;;;;;;10130909;28;20491;-60
2022/06/28 03:29:52;;;;;;;1.25;1.00;;;18.30;99.90;;;;;;10123340;28;20513;-59
2022/06/28 03:34:43;;;;;;;1.80;1.33;;;18.30;99.90;;;;;;10138220;28;20028;-61
2022/06/28 03:39:33;;;;;;;1.48;1.17;;;18.20;99.90;;;;;;10138893;28;20371;-60
2022/06/28 03:44:24;;;;;;;1.30;1.05;;;18.10;99.90;;;;;;10138593;28;20036;-60
2022/06/28 03:49:15;;;;;;;1.63;1.38;;;18.00;99.90;;;;;;10140937;28;20565;-60
2022/06/28 03:54:05;;;;;;;1.83;1.63;;;17.90;99.90;;;;;;10137944;28;20050;-61
2022/06/28 03:58:56;;;;;;;4.20;1.42;;;17.90;99.90;;;;;;10137080;28;20034;-59
2022/06/28 04:03:46;;;;;;;1.95;1.30;;;17.90;99.90;;;;;;10138046;28;20637;-61
2022/06/28 04:08:37;;;;;;;1.15;0.93;;;17.80;99.90;;;;;;10138029;28;20036;-62
2022/06/28 04:13:28;;;;;;;1.77;1.40;;;17.80;99.90;;;;;;10136592;28;20033;-60
2022/06/28 04:18:18;;;;;;;1.83;1.15;;;17.80;99.90;;;;;;10136991;28;20032;-60
2022/06/28 04:23:09;;;;;;;2.45;1.42;;;17.90;99.90;;;;;;10136790;28;20033;-58
2022/06/28 04:28:00;;;;;;;1.15;0.95;;;17.80;99.90;;;;;;10121674;28;20091;-60
2022/06/28 04:32:51;;;;;;;1.80;1.00;;;17.70;99.90;;;;;;10136601;28;20031;-60
2022/06/28 04:37:41;;;;;;;3.47;1.23;;;17.70;99.90;;;;;;10136709;28;20033;-59
2022/06/28 04:42:32;;;;;;;3.97;1.20;;;17.80;99.90;;;;;;10116720;28;20526;-61
2022/06/28 04:47:23;;;;;;;1.23;1.13;;;17.90;99.90;;;;;;10135432;28;20043;-59
2022/06/28 04:52:13;;;;;;;1.92;1.30;;;17.90;99.90;;;;;;10135521;28;20024;-60
2022/06/28 04:57:04;;;;;;;1.85;1.60;;;18.00;99.90;;;;;;10133076;28;20082;-59
2022/06/28 05:01:55;;;;;;;5.45;1.75;;;17.90;99.90;;;;;;10134118;28;20058;-59
2022/06/28 05:06:46;;;;;;;2.72;1.33;;;17.90;99.90;;;;;;10126264;28;20442;-60
2022/06/28 05:11:37;;;;;;;3.67;1.73;;;18.00;99.90;;;;;;10125842;28;20052;-60
2022/06/28 05:16:27;;;;;;;4.55;1.80;;;17.90;99.90;;;;;;10112925;28;20032;-59
2022/06/28 05:21:18;;;;;;;2.60;1.55;;;18.00;99.90;;;;;;10125037;28;20071;-59
2022/06/28 05:26:09;;;;;;;3.13;1.33;;;18.10;99.90;;;;;;10130662;28;20043;-62
2022/06/28 05:31:00;;;;;;;2.17;1.70;;;18.10;99.90;;;;;;10122983;28;20399;-59
2022/06/28 05:35:50;;;;;;;2.47;1.17;;;18.20;99.90;;;;;;10133718;28;20096;-60
2022/06/28 05:40:41;;;;;;;1.85;1.52;;;18.20;99.90;;;;;;10132871;28;20044;-60
2022/06/28 05:45:32;;;;;;;2.10;1.60;;;18.20;99.90;;;;;;10133239;28;20060;-60
2022/06/28 05:50:23;;;;;;;4.40;1.63;;;18.40;99.90;;;;;;10133457;28;20029;-60
2022/06/28 05:55:14;;;;;;;5.30;1.65;;;18.60;99.90;;;;;;10131315;28;20274;-58
2022/06/28 06:00:06;;;;;;;2.38;1.88;;;18.70;99.90;;;;;;10114157;28;20351;-59
2022/06/28 06:04:59;;;;;;;3.42;2.15;;;18.60;99.90;;;;;;10132607;28;20044;-59
2022/06/28 06:09:49;;;;;;;5.32;3.03;;;18.50;99.90;;;;;;10132202;28;20052;-59
2022/06/28 06:14:41;;;;;;;5.72;3.60;;;18.30;99.90;;;;;;10131787;28;20054;-58
2022/06/28 06:19:31;;;;;;;3.78;2.60;;;18.20;99.90;;;;;;10131706;28;20047;-60
2022/06/28 06:24:22;;;;;;;4.32;2.80;;;18.30;99.90;;;;;;10131393;28;20024;-60
2022/06/28 06:29:13;;;;;;;3.28;2.28;;;18.40;99.90;;;;;;10121648;28;20048;-59
2022/06/28 06:34:04;;;;;;;2.92;2.35;;;18.50;99.90;;;;;;10131889;28;20042;-59
2022/06/28 06:38:54;;;;;;;4.72;2.20;;;18.60;99.90;;;;;;10132282;28;20075;-59
2022/06/28 06:43:45;;;;;;;3.05;1.65;;;18.60;99.90;;;;;;10132031;28;20032;-60
2022/06/28 06:48:36;;;;;;;3.03;2.22;;;18.60;99.90;;;;;;10132579;28;20216;-60
2022/06/28 06:53:28;;;;;;;2.88;1.70;;;18.90;99.90;;;;;;10132202;28;20513;-60
2022/06/28 06:58:19;;;;;;;1.80;1.60;;;19.00;99.90;;;;;;10131899;28;20023;-60
2022/06/28 07:03:10;;;;;;;4.47;1.60;;;19.30;99.90;;;;;;10131087;28;20047;-61
2022/06/28 07:08:00;;;;;;;3.15;1.45;;;19.40;99.90;;;;;;10139337;28;20059;-61
2022/06/28 07:12:51;;;;;;;2.05;1.42;;;19.30;99.90;;;;;;10139929;28;20075;-59
2022/06/28 07:17:42;;;;;;;2.30;2.10;;;19.40;99.90;;;;;;10138657;28;20025;-58
2022/06/28 07:22:33;;;;;;;1.40;1.10;;;19.50;99.90;;;;;;10139042;28;20143;-59
2022/06/28 07:27:23;;;;;;;2.60;1.73;;;19.50;99.90;;;;;;10132387;28;20017;-58
2022/06/28 07:32:14;;;;;;;2.90;1.33;;;19.60;99.90;;;;;;10131679;28;20050;-59
2022/06/28 07:37:05;;;;;;;1.42;1.20;;;19.80;99.90;;;;;;10138317;28;20017;-60
2022/06/28 07:41:56;;;;;;;3.92;1.50;;;20.00;99.90;;;;;;10138073;28;20039;-59
2022/06/28 07:46:46;;;;;;;4.47;2.72;;;20.20;99.90;;;;;;10138173;28;20032;-58
2022/06/28 07:56:46;;;;;;;2.05;1.60;;;20.40;99.90;;;;;;10137548;28;20146;-60
2022/06/28 08:01:37;;;;;;;2.90;1.42;;;20.50;99.90;;;;;;10135916;28;20173;-60
2022/06/28 08:06:27;;;;;;;3.58;1.48;;;20.70;99.90;;;;;;10136934;28;20442;-58
2022/06/28 08:11:18;;;;;;;3.30;1.00;;;20.80;99.90;;;;;;10137479;28;20040;-59
2022/06/28 08:16:09;;;;;;;3.47;1.40;;;21.00;99.90;;;;;;10136310;28;20184;-59
2022/06/28 08:21:00;;;;;;;2.20;1.35;;;21.10;99.90;;;;;;10137106;28;20064;-60
2022/06/28 08:25:51;;;;;;;2.28;1.50;;;21.30;99.90;;;;;;10136417;28;20071;-59
2022/06/28 08:30:42;;;;;;;2.45;1.30;;;21.20;99.90;;;;;;10126547;28;20156;-59
2022/06/28 08:35:34;;;;;;;1.63;1.38;;;21.30;99.90;;;;;;10136349;28;20050;-58
2022/06/28 08:40:27;;;;;;;3.03;1.13;;;21.50;99.90;;;;;;10136096;28;20029;-61
2022/06/28 08:45:17;;;;;;;2.22;1.58;;;21.80;99.90;;;;;;10136214;28;20081;-59
2022/06/28 08:50:15;;;;;;;2.30;1.60;;;22.00;99.90;;;;;;10135453;28;20249;-59
2022/06/28 08:55:06;;;;;;;2.33;1.40;;;22.00;99.90;;;;;;10136252;28;20359;-61
2022/06/28 08:59:57;;;;;;;1.52;1.20;;;22.10;99.90;;;;;;10137510;28;20043;-58
2022/06/28 09:04:51;;;;;;;3.08;1.40;;;22.00;99.90;;;;;;10136579;28;20017;-59
2022/06/28 09:09:41;;;;;;;2.17;1.23;;;21.80;99.90;;;;;;10135426;28;20114;-59
2022/06/28 09:14:34;;;;;;;1.92;1.45;;;21.70;99.90;;;;;;10135113;28;20546;-60
2022/06/28 09:19:36;;;;;;;2.15;1.52;;;22.00;99.90;;;;;;10116750;28;20035;-58
2022/06/28 09:24:26;;;;;;;2.40;1.23;;;22.00;99.70;;;;;;10132208;28;20040;-60
2022/06/28 09:29:17;;;;;;;4.72;1.70;;;22.00;99.80;;;;;;10123945;28;20036;-60
2022/06/28 09:34:08;;;;;;;2.40;1.40;;;22.00;99.80;;;;;;10134441;28;20461;-58
2022/06/28 09:39:16;;;;;;;3.92;1.80;;;22.10;99.60;;;;;;10133508;28;20024;-60
2022/06/28 09:44:07;;;;;;;2.90;1.63;;;22.50;99.20;;;;;;10133188;28;20032;-58
2022/06/28 09:49:03;;;;;;;2.22;1.63;;;22.40;99.30;;;;;;10134051;28;20126;-58
2022/06/28 09:53:59;;;;;;;1.67;1.35;;;22.60;99.10;;;;;;10133820;28;20495;-58
2022/06/28 09:58:51;;;;;;;4.03;2.72;;;22.70;99.10;;;;;;10133189;28;20025;-58
2022/06/28 10:03:42;;;;;;;3.80;1.63;;;23.00;98.60;;;;;;10133424;28;20032;-59
2022/06/28 10:08:33;;;;;;;3.50;2.40;;;23.30;98.40;;;;;;10133408;28;20044;-58
2022/06/28 10:18:35;;;;;;;2.67;1.80;;;23.20;98.20;;;;;;10077642;28;20067;-59
2022/06/28 10:23:33;;;;;;;1.92;1.73;;;23.50;98.00;;;;;;10132385;28;20407;-58
2022/06/28 10:28:33;;;;;;;2.10;1.60;;;23.90;97.60;;;;;;10123478;28;20490;-59
2022/06/28 10:33:41;;;;;;;2.33;1.80;;;24.20;97.50;;;;;;10131811;28;20013;-60
2022/06/28 10:38:32;;;;;;;2.15;1.60;;;24.30;97.00;;;;;;10131912;28;20101;-59
2022/06/28 10:43:25;;;;;;;2.15;1.48;;;24.30;97.00;;;;;;10131229;28;20464;-59
2022/06/28 10:48:16;;;;;;;2.25;1.58;;;23.90;97.00;;;;;;10131813;28;20135;-59
2022/06/28 10:53:07;;;;;;;1.58;1.40;;;24.00;97.00;;;;;;10131266;28;20107;-59
2022/06/28 10:58:08;;;;;;;1.80;1.20;;;24.10;96.60;;;;;;10131637;28;20085;-59
2022/06/28 11:03:01;;;;;;;2.40;1.42;;;24.00;96.30;;;;;;10130761;28;20033;-58
2022/06/28 11:08:01;;;;;;;2.65;1.58;;;23.90;96.20;;;;;;10131548;28;20225;-60
2022/06/28 11:12:51;;;;;;;2.15;1.50;;;23.90;96.00;;;;;;10131695;28;20032;-61
2022/06/28 11:17:44;;;;;;;3.13;1.10;;;24.00;95.90;;;;;;10132229;28;20024;-60
2022/06/28 11:22:42;;;;;;;1.90;1.70;;;23.90;95.50;;;;;;10131080;28;20063;-60
2022/06/28 11:27:33;;;;;;;2.75;1.58;;;24.10;95.40;;;;;;10124949;28;20025;-60
2022/06/28 11:32:26;;;;;;;2.08;1.65;;;24.30;95.20;;;;;;10129838;28;20119;-59
2022/06/28 11:37:17;;;;;;;2.60;1.37;;;24.40;94.90;;;;;;10131883;28;20063;-60
2022/06/28 11:42:08;;;;;;;2.58;1.17;;;24.40;94.80;;;;;;10131449;28;20086;-59
2022/06/28 11:46:59;;;;;;;3.03;1.65;;;24.50;94.60;;;;;;10131802;28;20009;-61
2022/06/28 11:51:50;;;;;;;2.53;1.45;;;25.10;94.30;;;;;;10132718;28;20035;-60
2022/06/28 11:56:47;;;;;;;2.47;1.30;;;25.00;94.10;;;;;;10137470;28;20392;-63
2022/06/28 12:01:39;;;;;;;2.20;1.25;;;25.00;93.60;;;;;;10137993;28;20566;-61
2022/06/28 12:06:33;;;;;;;3.50;1.08;;;25.00;93.70;;;;;;10137300;28;20066;-60
2022/06/28 12:11:27;;;;;;;1.57;0.97;;;25.20;93.50;;;;;;10137587;28;20132;-61
2022/06/28 12:16:18;;;;;;;3.30;1.20;;;25.50;92.90;;;;;;10137347;28;20024;-61
2022/06/28 12:21:12;;;;;;;3.10;1.00;;;25.80;92.90;;;;;;10137383;28;20131;-60
2022/06/28 12:26:03;;;;;;;5.07;2.45;;;26.00;92.60;;;;;;10137588;28;20054;-59
2022/06/28 12:30:54;;;;;;;1.75;0.98;;;26.40;92.70;;;;;;10127346;28;20032;-63
2022/06/28 12:35:44;;;;;;;2.42;1.50;;;26.80;92.40;;;;;;10135973;28;20020;-60
2022/06/28 12:40:35;;;;;;;3.50;1.42;;;27.30;92.20;;;;;;10136586;28;20040;-60
2022/06/28 12:45:26;;;;;;;1.23;1.13;;;27.50;91.60;;;;;;10136140;28;20533;-61
2022/06/28 12:50:17;;;;;;;1.27;1.15;;;27.60;91.10;;;;;;10136190;28;20028;-61
2022/06/28 12:55:10;;;;;;;1.83;1.13;;;28.10;90.70;;;;;;10135911;28;20443;-61
2022/06/28 13:00:01;;;;;;;2.10;1.00;;;27.60;90.10;;;;;;10136212;28;20035;-63
2022/06/28 13:04:51;;;;;;;1.55;0.98;;;27.00;90.20;;;;;;10135751;28;20032;-61
2022/06/28 13:09:42;;;;;;;1.83;1.20;;;26.90;90.00;;;;;;10135641;28;20063;-62
2022/06/28 13:14:33;;;;;;;2.38;0.93;;;27.00;89.00;;;;;;10135086;28;20285;-60
2022/06/28 13:19:23;;;;;;;1.60;1.50;;;26.90;88.40;;;;;;10134630;28;20044;-61
2022/06/28 13:24:15;;;;;;;1.00;0.90;;;27.00;88.00;;;;;;10133755;28;20043;-59
2022/06/28 13:29:05;;;;;;;1.17;0.93;;;27.30;86.80;;;;;;10124005;28;20056;-60
2022/06/28 13:33:56;;;;;;;0.95;0.82;;;27.50;85.30;;;;;;10133873;28;20044;-61
2022/06/28 13:38:47;;;;;;;2.38;1.48;;;27.40;85.10;;;;;;10134055;28;20032;-61
2022/06/28 13:43:37;;;;;;;2.50;1.10;;;26.90;85.20;;;;;;10133303;28;20070;-61
2022/06/28 13:48:28;;;;;;;1.65;1.10;;;26.90;85.30;;;;;;10134067;28;20024;-60
2022/06/28 13:53:19;;;;;;;1.27;1.10;;;27.10;84.80;;;;;;10133544;28;20035;-62
2022/06/28 13:58:12;;;;;;;1.25;1.00;;;29.00;82.70;;;;;;10115160;28;20452;-60
2022/06/28 14:03:03;;;;;;;1.50;1.40;;;29.30;81.20;;;;;;10132096;28;20329;-61
2022/06/28 14:07:53;;;;;;;1.88;1.20;;;28.50;81.40;;;;;;10133133;28;20032;-60
2022/06/28 14:12:44;;;;;;;1.55;1.20;;;28.00;81.60;;;;;;10132404;28;20058;-58
2022/06/28 14:17:35;;;;;;;2.50;1.60;;;27.60;81.80;;;;;;10132111;28;20032;-59
2022/06/28 14:22:25;;;;;;;1.05;0.90;;;27.10;81.70;;;;;;10132333;28;20044;-61
2022/06/28 14:27:16;;;;;;;1.58;1.17;;;26.80;81.60;;;;;;10127706;28;20491;-60
2022/06/28 14:32:07;;;;;;;1.33;0.90;;;27.00;81.70;;;;;;10128166;28;20506;-61
2022/06/28 14:36:58;;;;;;;1.90;1.55;;;26.70;81.30;;;;;;10131882;28;20017;-61
2022/06/28 14:41:49;;;;;;;2.70;1.33;;;26.60;81.30;;;;;;10132736;28;20033;-60
2022/06/28 14:46:39;;;;;;;1.58;1.10;;;26.60;81.50;;;;;;10113582;28;20028;-61
2022/06/28 14:51:31;;;;;;;1.48;1.35;;;26.40;81.70;;;;;;10132594;28;20028;-60
2022/06/28 14:56:21;;;;;;;1.48;0.93;;;26.20;81.90;;;;;;10131563;28;20112;-61
2022/06/28 15:01:12;;;;;;;2.08;1.38;;;25.90;82.30;;;;;;10132287;28;20112;-60
2022/06/28 15:06:03;;;;;;;3.72;1.30;;;25.90;82.60;;;;;;10131521;28;20067;-61
2022/06/28 15:10:54;;;;;;;3.42;1.30;;;25.80;82.80;;;;;;10130821;28;20087;-61
2022/06/28 15:15:45;;;;;;;2.60;0.90;;;25.90;82.80;;;;;;10131410;28;20024;-61
2022/06/28 15:20:35;;;;;;;2.55;1.25;;;26.00;82.90;;;;;;10132079;28;20033;-61
2022/06/28 15:30:52;;;;;;;2.77;1.00;;;26.20;83.40;;;;;;10086411;28;20513;-60
2022/06/28 15:35:43;;;;;;;1.30;1.15;;;26.30;83.60;;;;;;10138297;28;20838;-60
2022/06/28 15:40:34;;;;;;;4.45;1.30;;;26.30;83.90;;;;;;10138442;28;20076;-61
2022/06/28 15:45:25;;;;;;;1.90;1.35;;;26.10;84.00;;;;;;10138108;28;20506;-60
2022/06/28 15:50:15;;;;;;;3.22;1.40;;;26.00;84.10;;;;;;10138985;28;20035;-59
2022/06/28 15:55:08;;;;;;;1.05;0.90;;;25.80;84.50;;;;;;10138815;28;20024;-58
2022/06/28 15:59:59;;;;;;;1.13;1.02;;;25.60;84.70;;;;;;10139482;28;20048;-62
2022/06/28 16:04:50;;;;;;;0.90;0.77;;;25.50;84.80;;;;;;10138249;28;20024;-58
2022/06/28 16:09:40;;;;;;;1.55;0.95;;;25.50;84.90;;;;;;10137772;28;20052;-59
2022/06/28 16:14:31;;;;;;;2.08;1.38;;;25.50;84.70;;;;;;10137464;28;20458;-59
2022/06/28 16:19:22;;;;;;;1.73;1.08;;;25.50;85.00;;;;;;10136802;28;20058;-58
2022/06/28 16:24:12;;;;;;;1.30;0.98;;;25.30;85.20;;;;;;10136587;28;20139;-59
2022/06/28 16:29:04;;;;;;;3.42;1.85;;;25.30;85.20;;;;;;10127544;28;20075;-58
2022/06/28 16:33:54;;;;;;;2.10;1.00;;;25.30;85.50;;;;;;10137120;28;20012;-58
2022/06/28 16:38:45;;;;;;;4.93;1.60;;;25.20;85.60;;;;;;10117909;28;20024;-58
2022/06/28 16:43:36;;;;;;;2.08;1.15;;;25.10;85.90;;;;;;10135908;28;20259;-59
2022/06/28 16:48:26;;;;;;;2.08;1.30;;;25.00;86.10;;;;;;10136160;28;20036;-58
2022/06/28 16:53:17;;;;;;;2.13;1.10;;;25.00;86.30;;;;;;10135607;28;20483;-59
2022/06/28 16:58:08;;;;;;;2.40;1.35;;;25.00;86.40;;;;;;10135680;28;20138;-59
2022/06/28 17:02:59;;;;;;;2.38;1.27;;;25.00;86.50;;;;;;10116800;28;20035;-58
2022/06/28 17:07:49;;;;;;;2.50;1.42;;;25.00;86.60;;;;;;10135962;28;20032;-61
2022/06/28 17:12:43;;;;;;;0.95;0.95;;;25.10;86.60;;;;;;10134819;28;20139;-61
2022/06/28 17:17:33;;;;;;;1.80;1.35;;;25.10;86.70;;;;;;10135043;28;20081;-59
2022/06/28 17:22:29;;;;;;;1.55;1.45;;;25.00;86.90;;;;;;10101095;28;20458;-59
2022/06/28 17:27:19;;;;;;;1.65;1.55;;;25.00;87.10;;;;;;10122750;28;20036;-59
2022/06/28 17:32:11;;;;;;;1.52;1.10;;;25.00;87.40;;;;;;10128933;28;20032;-58
2022/06/28 17:37:02;;;;;;;1.00;0.90;;;24.90;87.50;;;;;;10122545;28;20491;-60
2022/06/28 17:41:53;;;;;;;2.50;1.23;;;24.90;87.70;;;;;;10134153;28;20032;-60
2022/06/28 17:46:49;;;;;;;1.48;1.00;;;24.90;88.00;;;;;;10115813;28;20465;-59
2022/06/28 17:51:40;;;;;;;1.92;1.02;;;24.80;88.40;;;;;;10134433;28;20029;-61
2022/06/28 17:56:31;;;;;;;1.75;1.08;;;24.80;89.30;;;;;;10134009;28;20021;-61
2022/06/28 18:01:22;;;;;;;1.80;1.13;;;24.80;88.80;;;;;;10116528;28;20080;-59
2022/06/28 18:06:12;;;;;;;3.13;1.58;;;24.80;89.20;;;;;;10133424;28;20072;-59
2022/06/28 18:11:03;;;;;;;1.70;1.38;;;24.70;89.80;;;;;;10117055;28;20040;-60
2022/06/28 18:15:53;;;;;;;1.80;1.35;;;24.60;90.10;;;;;;10133438;28;20020;-59
2022/06/28 18:20:44;;;;;;;3.38;1.52;;;24.60;90.30;;;;;;10132729;28;20421;-61
2022/06/28 18:25:35;;;;;;;3.05;1.42;;;24.60;90.40;;;;;;10133116;28;20025;-59
2022/06/28 18:30:27;;;;;;;2.55;1.38;;;24.60;90.50;;;;;;10127355;28;20028;-60
2022/06/28 18:35:19;;;;;;;1.38;1.20;;;24.60;90.60;;;;;;10133175;28;20009;-60
2022/06/28 18:40:11;;;;;;;2.63;1.30;;;24.60;90.50;;;;;;10133144;28;20071;-59
2022/06/28 18:45:03;;;;;;;2.78;1.58;;;24.60;90.60;;;;;;10133304;28;20066;-58
2022/06/28 18:49:54;;;;;;;3.22;1.40;;;24.60;90.80;;;;;;10133301;28;20123;-62
2022/06/28 18:54:45;;;;;;;2.35;1.38;;;24.50;90.80;;;;;;10131895;28;20024;-61
2022/06/28 18:59:35;;;;;;;4.05;1.30;;;24.50;90.90;;;;;;10131972;28;20123;-58
2022/06/28 19:04:28;;;;;;;3.78;1.58;;;24.50;91.00;;;;;;10139893;28;20079;-59
2022/06/28 19:09:21;;;;;;;1.73;1.55;;;24.40;91.10;;;;;;10140540;28;20036;-58
2022/06/28 19:14:11;;;;;;;2.67;1.65;;;24.40;91.10;;;;;;10140389;28;20494;-59
2022/06/28 19:19:03;;;;;;;3.97;1.80;;;24.40;91.20;;;;;;10140815;28;20025;-59
2022/06/28 19:23:54;;;;;;;2.55;1.95;;;24.40;91.20;;;;;;10140089;28;20330;-59
2022/06/28 19:28:45;;;;;;;3.10;1.80;;;24.40;91.30;;;;;;10140435;28;20032;-60
2022/06/28 19:33:35;;;;;;;2.40;1.63;;;24.40;91.40;;;;;;10139785;28;20073;-59
2022/06/28 19:38:26;;;;;;;2.70;1.40;;;24.40;91.40;;;;;;10139399;28;20414;-58
2022/06/28 19:43:17;;;;;;;10.43;5.15;;;24.40;91.50;;;;;;10139643;28;20362;-59
2022/06/28 19:48:08;;;;;;;13.88;7.30;;;24.30;91.40;;;;;;10139481;28;20534;-58
2022/06/28 19:52:59;;;;;;;5.07;2.20;;;24.30;91.50;;;;;;10138690;28;20052;-58
2022/06/28 19:57:49;;;;;;;2.53;1.73;;;24.40;91.50;;;;;;10138639;28;20029;-59
2022/06/28 20:02:44;;;;;;;3.90;2.35;;;24.30;91.60;;;;;;10138048;28;20028;-59
2022/06/28 20:07:35;;;;;;;3.60;2.13;;;24.40;91.60;;;;;;10140183;28;20024;-59
2022/06/28 20:12:26;;;;;;;3.03;1.60;;;24.30;91.60;;;;;;10128341;28;20048;-59
2022/06/28 20:17:16;;;;;;;2.28;1.40;;;24.30;91.70;;;;;;10116254;28;20056;-60
2022/06/28 20:22:08;;;;;;;3.17;1.85;;;24.30;91.80;;;;;;10133538;28;20400;-60
2022/06/28 20:26:58;;;;;;;5.13;2.15;;;24.30;91.80;;;;;;10133940;28;20048;-59
2022/06/28 20:31:50;;;;;;;10.27;3.03;;;24.20;91.90;;;;;;10111566;28;20036;-60
2022/06/28 20:36:41;;;;;;;2.40;1.55;;;24.20;91.90;;;;;;10137960;28;20043;-59
2022/06/28 20:46:42;;;;;;;1.83;1.33;;;24.10;92.00;;;;;;10137506;28;20456;-61
2022/06/28 20:51:33;;;;;;;1.40;1.20;;;24.10;92.00;;;;;;10137066;28;20108;-59
2022/06/28 20:56:23;;;;;;;4.93;2.05;;;24.10;92.00;;;;;;10135523;28;20028;-58
2022/06/28 21:01:20;;;;;;;4.57;1.92;;;24.10;92.00;;;;;;10135431;28;20063;-59
2022/06/28 21:06:11;;;;;;;2.47;1.75;;;24.10;92.00;;;;;;10135882;28;20074;-62
2022/06/28 21:11:01;;;;;;;4.20;2.08;;;24.00;92.00;;;;;;10135258;28;20511;-60
2022/06/28 21:15:52;;;;;;;4.15;2.38;;;24.00;92.10;;;;;;10136025;28;20020;-58
2022/06/28 21:20:43;;;;;;;3.72;2.33;;;24.00;92.20;;;;;;10135251;28;20143;-58
2022/06/28 21:25:34;;;;;;;1.17;1.08;;;24.00;92.10;;;;;;10134575;28;20020;-59
2022/06/28 21:30:24;;;;;;;6.13;2.42;;;24.00;92.10;;;;;;10125779;28;20491;-58
2022/06/28 21:35:15;;;;;;;3.40;2.17;;;23.90;92.30;;;;;;10135145;28;20016;-58
2022/06/28 21:40:06;;;;;;;2.53;1.30;;;23.90;92.30;;;;;;10134949;28;20024;-63
2022/06/28 21:44:57;;;;;;;2.60;1.65;;;23.90;92.30;;;;;;10116370;28;20028;-58
2022/06/28 21:49:48;;;;;;;1.85;1.45;;;23.90;92.30;;;;;;10133545;28;20025;-58
2022/06/28 21:54:39;;;;;;;2.17;1.33;;;23.80;92.20;;;;;;10133818;28;20456;-58
2022/06/28 21:59:29;;;;;;;1.25;1.10;;;23.70;92.40;;;;;;10133468;28;20043;-58
2022/06/28 22:04:20;;;;;;;1.95;1.15;;;23.80;92.30;;;;;;10133070;28;20057;-58
2022/06/28 22:09:11;;;;;;;3.78;1.27;;;23.80;92.30;;;;;;10133590;28;20060;-59
2022/06/28 22:14:06;;;;;;;3.53;1.38;;;23.90;92.40;;;;;;10133124;28;20398;-59
2022/06/28 22:18:57;;;;;;;3.80;1.50;;;23.90;92.30;;;;;;10133322;28;20286;-57
2022/06/28 22:23:48;;;;;;;2.88;1.75;;;23.90;92.30;;;;;;10132176;28;20725;-57
2022/06/28 22:28:39;;;;;;;3.10;2.03;;;23.90;92.30;;;;;;10123145;28;20029;-59
2022/06/28 22:33:29;;;;;;;2.17;1.27;;;23.80;92.40;;;;;;10133819;28;20182;-59
2022/06/28 22:38:20;;;;;;;3.85;1.55;;;23.80;92.30;;;;;;10131967;28;20404;-58
2022/06/28 22:43:11;;;;;;;2.33;1.55;;;23.70;92.40;;;;;;10131997;28;20056;-58
2022/06/28 22:48:01;;;;;;;1.40;1.10;;;23.70;92.40;;;;;;10132959;28;20266;-60
2022/06/28 22:52:53;;;;;;;1.83;1.20;;;23.60;92.40;;;;;;10132055;28;20534;-62
2022/06/28 22:57:43;;;;;;;2.67;1.58;;;23.70;92.70;;;;;;10132886;28;20016;-57
2022/06/28 23:02:34;;;;;;;2.95;1.30;;;23.70;92.50;;;;;;10131062;28;20033;-60
2022/06/28 23:07:25;;;;;;;4.30;1.30;;;23.70;92.50;;;;;;10133483;28;20021;-60
2022/06/28 23:12:15;;;;;;;2.92;1.15;;;23.60;92.60;;;;;;10132181;28;20048;-60
2022/06/28 23:17:06;;;;;;;1.88;1.25;;;23.50;92.70;;;;;;10132658;28;20039;-58
2022/06/28 23:21:56;;;;;;;1.75;1.08;;;23.50;92.90;;;;;;10131892;28;20037;-59
2022/06/28 23:26:47;;;;;;;3.38;1.23;;;23.40;93.00;;;;;;10131061;28;20391;-58
2022/06/28 23:31:38;;;;;;;2.03;1.10;;;23.30;93.10;;;;;;10123085;28;20016;-58
2022/06/28 23:36:28;;;;;;;2.28;1.63;;;23.30;93.30;;;;;;10132286;28;20024;-61
2022/06/28 23:41:19;;;;;;;2.58;1.88;;;23.30;93.30;;;;;;10131319;28;20044;-59
2022/06/28 23:46:10;;;;;;;1.42;0.98;;;23.30;93.20;;;;;;10132986;28;20029;-58
2022/06/28 23:51:01;;;;;;;2.78;1.00;;;23.40;93.30;;;;;;10136249;28;20086;-60
2022/06/28 23:55:52;;;;;;;1.20;0.90;;;23.40;93.30;;;;;;10132468;28;20124;-58
